Aviation Digital Data Service (ADDS)

Output produced by TAFs form (2359 UTC 18 July 2018)
found at http://www.aviationweather.gov/adds/tafs/
 
METAR text: RJNG 182244Z VRB02KT 9999 FEW020 SCT030 30/23 Q1011 RMK 1CU020 4CU030 A2987
Conditions at: RJNG (GIFU (JASDF) , JP) observed 2244 UTC 18 July 2018
Temperature: 30.0°C (86°F)
Dewpoint: 23.0°C (73°F) [RH = 66%]
Pressure (altimeter): 29.85 inches Hg (1011.0 mb)
Winds: variable direction winds at 2 MPH (2 knots; 1.0 m/s)
Visibility: 6 or more miles (10+ km)
Ceiling: at least 12,000 feet AGL
Clouds: few clouds at 2000 feet AGL
scattered clouds at 3000 feet AGL
Weather: no significant weather observed at this time